KMKO/MKO METAR and TAF weather

Enter ICAO airport designator
Station Type Date Time Source
KMKO METAR 2020/02/26 10:10 UTC NOAA

KMKO 261010Z AUTO 35018G25KT 10SM UP BKN013 BKN021 OVC040 02/00 A3023 RMK AO2 RAE00UPB00 P0000 T00170000


Station Type Date Time Source
KMKO Decoded METAR 2020/02/26 10:10 UTC NOAA

MUSKOGEE DAVIS FIELD, OK, United States (KMKO) 35-39N 95-22W 185M
Feb 26, 2020 - 05:10 AM EST / 2020.02.26 1010 UTC
Wind: from the N (350 degrees) at 21 MPH (18 KT) gusting to 29 MPH (25 KT):0
Visibility: 10 mile(s):0
Sky conditions: overcast
Weather: precipitation
Precipitation last hour: A trace
Temperature: 35.1 F (1.7 C)
Dew Point: 32.0 F (0.0 C)
Relative Humidity: 88%
Pressure (altimeter): 30.23 in. Hg (1023 hPa)
ob: KMKO 261010Z AUTO 35018G25KT 10SM UP BKN013 BKN021 OVC040 02/00 A3023 RMK AO2 RAE00UPB00 P0000 T00170000
cycle: 10

Station Type Date Time Source
KMKO TAF UTC NOAA

Error!

Example: see airport list